createdAt,value
2023-06-27T00:00:21.892Z,287.76
2023-06-27T00:01:21.909Z,287.11
2023-06-27T00:02:22.060Z,282.95
2023-06-27T00:03:21.866Z,283.14
2023-06-27T00:04:21.821Z,282.01
2023-06-27T00:05:21.788Z,282.21
2023-06-27T00:06:21.782Z,283.19
2023-06-27T00:07:21.785Z,283.06
2023-06-27T00:08:21.740Z,282.94
2023-06-27T00:09:21.729Z,284.70
2023-06-27T00:10:21.729Z,285.15
2023-06-27T00:11:21.670Z,282.22
2023-06-27T00:12:21.648Z,276.93
2023-06-27T00:13:21.633Z,276.66
2023-06-27T00:14:21.598Z,275.31
2023-06-27T00:15:21.580Z,270.06
2023-06-27T00:16:21.573Z,272.33
2023-06-27T00:17:21.553Z,271.00
2023-06-27T00:18:21.510Z,267.71
2023-06-27T00:19:21.610Z,268.02
2023-06-27T00:20:21.471Z,268.32
2023-06-27T00:21:21.446Z,268.26
2023-06-27T00:22:21.416Z,268.78
2023-06-27T00:23:21.413Z,269.96
2023-06-27T00:24:21.386Z,269.22
2023-06-27T00:25:21.363Z,275.11
2023-06-27T00:26:21.351Z,270.71
2023-06-27T00:27:21.315Z,266.11
2023-06-27T00:28:21.296Z,262.30
2023-06-27T00:29:21.280Z,263.95
2023-06-27T00:30:21.247Z,258.26
2023-06-27T00:31:21.297Z,264.70
2023-06-27T00:32:21.241Z,261.89
2023-06-27T00:33:21.196Z,260.49
2023-06-27T00:34:21.184Z,259.56
2023-06-27T00:35:21.152Z,252.47
2023-06-27T00:36:21.153Z,251.83
2023-06-27T00:37:21.197Z,250.50
2023-06-27T00:38:21.205Z,252.11
2023-06-27T00:39:21.232Z,249.91
2023-06-27T00:40:21.260Z,250.41
2023-06-27T00:41:21.265Z,247.77
2023-06-27T00:42:21.306Z,243.16
2023-06-27T00:43:21.348Z,247.52
2023-06-27T00:44:21.338Z,244.61
2023-06-27T00:45:21.374Z,242.13
2023-06-27T00:46:21.386Z,243.08
2023-06-27T00:47:21.414Z,241.67
2023-06-27T00:48:21.444Z,240.49
2023-06-27T00:49:21.462Z,239.42
2023-06-27T00:50:21.474Z,233.22
2023-06-27T00:51:21.493Z,237.42
2023-06-27T00:52:21.529Z,234.22
2023-06-27T00:53:21.552Z,234.52
2023-06-27T00:54:21.572Z,231.16
2023-06-27T00:55:21.597Z,228.34
2023-06-27T00:56:21.627Z,229.12
2023-06-27T00:57:21.646Z,228.08
2023-06-27T00:58:21.632Z,228.38
2023-06-27T00:59:21.623Z,229.36
2023-06-27T01:00:21.595Z,229.39
2023-06-27T01:01:21.582Z,229.55
2023-06-27T01:02:21.560Z,229.34
2023-06-27T01:03:21.578Z,227.73
2023-06-27T01:04:21.494Z,229.61
2023-06-27T01:05:21.480Z,228.93
2023-06-27T01:06:21.461Z,231.31
2023-06-27T01:07:21.562Z,220.47
2023-06-27T01:08:21.440Z,223.09
2023-06-27T01:09:21.417Z,220.82
2023-06-27T01:10:21.403Z,221.65
2023-06-27T01:11:21.390Z,217.09
2023-06-27T01:12:21.455Z,218.74
2023-06-27T01:13:21.480Z,217.75
2023-06-27T01:14:21.483Z,214.76
2023-06-27T01:15:21.518Z,216.12
2023-06-27T01:16:21.534Z,214.82
2023-06-27T01:17:21.612Z,215.73
2023-06-27T01:18:21.607Z,211.02
2023-06-27T01:19:21.637Z,211.71
2023-06-27T01:20:21.674Z,211.53
2023-06-27T01:21:21.700Z,213.13
2023-06-27T01:22:21.736Z,210.98
2023-06-27T01:23:21.776Z,209.69
2023-06-27T01:24:21.787Z,205.69
2023-06-27T01:25:21.822Z,207.66
2023-06-27T01:26:21.864Z,205.94
2023-06-27T01:27:21.881Z,202.01
2023-06-27T01:28:21.894Z,205.81
2023-06-27T01:29:21.930Z,200.76
2023-06-27T01:30:21.983Z,205.20
2023-06-27T01:31:22.047Z,200.30
2023-06-27T01:32:22.056Z,202.12
2023-06-27T01:33:22.003Z,202.28
2023-06-27T01:34:21.975Z,202.17
2023-06-27T01:35:21.959Z,202.42
2023-06-27T01:36:21.950Z,200.74
2023-06-27T01:37:21.926Z,200.70
2023-06-27T01:38:21.936Z,200.98
2023-06-27T01:39:21.891Z,200.48
2023-06-27T01:40:21.864Z,197.13
2023-06-27T01:41:21.946Z,196.19
2023-06-27T01:42:21.840Z,195.30
2023-06-27T01:43:21.841Z,192.85
2023-06-27T01:44:21.811Z,190.82
2023-06-27T01:45:21.824Z,190.57
2023-06-27T01:46:21.961Z,191.47
2023-06-27T01:47:21.910Z,191.57
2023-06-27T01:48:21.958Z,189.77
2023-06-27T01:49:21.951Z,192.48
2023-06-27T01:50:21.992Z,186.54
2023-06-27T01:51:22.024Z,189.71
2023-06-27T01:52:22.053Z,187.91
2023-06-27T01:53:22.094Z,186.24
2023-06-27T01:54:22.122Z,186.53
2023-06-27T01:55:22.151Z,185.05
2023-06-27T01:56:22.190Z,183.67
2023-06-27T01:57:22.235Z,183.10
2023-06-27T01:58:22.259Z,182.38
2023-06-27T01:59:22.293Z,179.84
2023-06-27T02:00:22.337Z,181.06
2023-06-27T02:01:22.419Z,180.32
2023-06-27T02:02:22.456Z,180.46
2023-06-27T02:03:22.494Z,179.10
2023-06-27T02:04:22.454Z,178.93
2023-06-27T02:05:22.499Z,175.74
2023-06-27T02:06:22.523Z,175.24
2023-06-27T02:07:22.599Z,176.76
2023-06-27T02:08:22.629Z,172.00
2023-06-27T02:09:22.636Z,172.89
2023-06-27T02:10:22.676Z,170.09
2023-06-27T02:11:22.692Z,170.99
2023-06-27T02:12:22.733Z,175.73
2023-06-27T02:13:22.778Z,172.66
2023-06-27T02:14:22.829Z,170.10
2023-06-27T02:15:22.838Z,171.07
2023-06-27T02:16:22.897Z,169.10
2023-06-27T02:17:22.938Z,168.22
2023-06-27T02:18:22.955Z,166.61
2023-06-27T02:19:22.986Z,167.29
2023-06-27T02:20:23.019Z,165.79
2023-06-27T02:21:23.058Z,166.46
2023-06-27T02:22:23.113Z,164.25
2023-06-27T02:23:23.162Z,166.21
2023-06-27T02:24:23.197Z,166.07
2023-06-27T02:25:23.305Z,163.39
2023-06-27T02:26:23.262Z,162.69
2023-06-27T02:27:23.309Z,162.43
2023-06-27T02:28:23.338Z,161.43
2023-06-27T02:29:23.381Z,158.64
2023-06-27T02:30:23.413Z,160.22
2023-06-27T02:31:23.555Z,158.96
2023-06-27T02:32:23.528Z,157.91
2023-06-27T02:33:23.539Z,157.93
2023-06-27T02:34:23.567Z,157.83
2023-06-27T02:35:23.612Z,157.29
2023-06-27T02:36:23.644Z,155.61
2023-06-27T02:37:23.700Z,155.54
2023-06-27T02:38:23.743Z,154.61
2023-06-27T02:39:23.794Z,153.03
2023-06-27T02:40:23.831Z,151.65
2023-06-27T02:41:23.873Z,151.94
2023-06-27T02:42:23.932Z,153.67
2023-06-27T02:43:23.976Z,151.30
2023-06-27T02:44:24.004Z,150.84
2023-06-27T02:45:24.048Z,151.25
2023-06-27T02:46:24.198Z,146.98
2023-06-27T02:47:24.169Z,148.77
2023-06-27T02:48:24.187Z,148.41
2023-06-27T02:49:24.231Z,145.45
2023-06-27T02:50:24.285Z,146.53
2023-06-27T02:51:24.322Z,145.50
2023-06-27T02:52:24.360Z,146.62
2023-06-27T02:53:24.439Z,145.99
2023-06-27T02:54:24.435Z,143.25
2023-06-27T02:55:24.490Z,144.20
2023-06-27T02:56:24.519Z,142.72
2023-06-27T02:57:24.573Z,140.81
2023-06-27T02:58:24.611Z,140.90
2023-06-27T02:59:24.663Z,139.51
2023-06-27T03:00:24.682Z,140.12
2023-06-27T03:01:24.891Z,139.92
2023-06-27T03:02:24.824Z,138.51
2023-06-27T03:03:24.950Z,138.62
2023-06-27T03:04:24.876Z,137.80
2023-06-27T03:05:24.904Z,137.44
2023-06-27T03:06:24.929Z,138.36
2023-06-27T03:07:25.108Z,136.71
2023-06-27T03:08:25.021Z,132.06
2023-06-27T03:09:25.040Z,127.55
2023-06-27T03:10:25.109Z,118.83
2023-06-27T03:11:25.134Z,109.50
2023-06-27T03:12:25.180Z,98.18
2023-06-27T03:13:25.242Z,89.45
2023-06-27T03:14:25.286Z,83.66
2023-06-27T03:15:25.315Z,76.42
2023-06-27T03:16:25.338Z,70.86
2023-06-27T03:17:25.386Z,65.92
2023-06-27T03:18:25.346Z,60.20
2023-06-27T03:19:34.439Z,57.75
2023-06-27T03:20:26.336Z,56.38
2023-06-27T03:21:25.305Z,52.82
2023-06-27T03:22:25.286Z,48.48
2023-06-27T03:23:25.274Z,47.08
2023-06-27T03:24:25.255Z,43.90
2023-06-27T03:25:25.273Z,43.15
2023-06-27T03:26:25.240Z,39.10
2023-06-27T03:27:25.207Z,37.63
2023-06-27T03:28:25.208Z,36.96
2023-06-27T03:29:25.198Z,34.31
2023-06-27T03:30:25.182Z,32.25
2023-06-27T03:31:25.196Z,31.30
2023-06-27T03:32:25.203Z,29.73
2023-06-27T03:33:25.136Z,28.86
2023-06-27T03:34:25.117Z,28.46
2023-06-27T03:35:25.111Z,27.22
2023-06-27T03:36:25.086Z,26.84
2023-06-27T03:37:25.074Z,26.28
2023-06-27T03:38:25.087Z,26.73
2023-06-27T03:39:25.039Z,25.20
2023-06-27T03:40:25.028Z,24.88
2023-06-27T03:41:25.009Z,24.55
2023-06-27T03:42:24.980Z,23.99
2023-06-27T03:43:24.967Z,22.91
2023-06-27T03:44:24.995Z,21.90
2023-06-27T03:45:24.935Z,21.53
2023-06-27T03:46:24.915Z,20.16
2023-06-27T03:47:24.907Z,19.26
2023-06-27T03:48:24.903Z,18.24
2023-06-27T03:49:24.871Z,17.94
2023-06-27T03:50:24.877Z,16.76
2023-06-27T03:51:24.858Z,15.69
2023-06-27T03:52:24.841Z,15.15
2023-06-27T03:53:24.822Z,14.75
2023-06-27T03:54:24.811Z,14.12
2023-06-27T03:55:24.794Z,14.07
2023-06-27T03:56:24.790Z,13.58
2023-06-27T03:57:24.783Z,12.11
2023-06-27T03:58:24.790Z,11.41
2023-06-27T03:59:24.749Z,10.13
2023-06-27T04:00:24.739Z,9.34
2023-06-27T04:01:24.726Z,8.58
2023-06-27T04:02:24.808Z,8.19
2023-06-27T04:03:24.758Z,7.51
2023-06-27T04:04:24.804Z,7.36
2023-06-27T04:05:24.680Z,7.15
2023-06-27T04:06:24.679Z,6.77
2023-06-27T04:07:24.697Z,6.43
2023-06-27T04:08:24.672Z,6.24
2023-06-27T04:09:24.649Z,5.94
2023-06-27T04:10:24.633Z,5.78
2023-06-27T04:11:24.623Z,5.70
2023-06-27T04:12:24.628Z,5.65
2023-06-27T04:13:24.603Z,5.54
2023-06-27T04:14:26.232Z,5.54
2023-06-27T04:15:24.591Z,5.44
2023-06-27T04:16:24.569Z,5.67
2023-06-27T04:17:24.612Z,5.68
2023-06-27T04:18:24.566Z,5.68
2023-06-27T04:19:24.580Z,5.69
2023-06-27T04:20:24.531Z,5.72
2023-06-27T04:21:24.527Z,5.89
2023-06-27T04:22:24.512Z,6.01
2023-06-27T04:23:24.494Z,6.00
2023-06-27T04:24:24.474Z,6.00
2023-06-27T04:25:24.469Z,6.19
2023-06-27T04:26:24.453Z,6.37
2023-06-27T04:27:24.464Z,6.07
2023-06-27T04:28:24.416Z,6.11
2023-06-27T04:29:24.432Z,6.09
2023-06-27T04:30:24.388Z,5.87
2023-06-27T04:31:24.402Z,5.96
2023-06-27T04:32:24.379Z,6.14
2023-06-27T04:33:24.342Z,6.12
2023-06-27T04:34:24.335Z,6.32
2023-06-27T04:35:24.305Z,6.08
2023-06-27T04:36:24.301Z,6.55
2023-06-27T04:37:24.284Z,6.57
2023-06-27T04:38:24.266Z,6.58
2023-06-27T04:39:24.252Z,6.82
2023-06-27T04:40:24.289Z,7.07
2023-06-27T04:41:24.287Z,7.16
2023-06-27T04:42:24.301Z,7.47
2023-06-27T04:43:24.320Z,7.61
2023-06-27T04:44:24.343Z,7.82
2023-06-27T04:45:24.336Z,7.85
2023-06-27T04:46:24.351Z,7.86
2023-06-27T04:47:24.323Z,7.91
2023-06-27T04:48:24.312Z,7.87
2023-06-27T04:49:24.289Z,7.96
2023-06-27T04:50:24.280Z,7.88
2023-06-27T04:51:24.265Z,8.05
2023-06-27T04:52:24.266Z,8.33
2023-06-27T04:53:24.249Z,8.81
2023-06-27T04:54:24.225Z,9.77
2023-06-27T04:55:24.212Z,9.95
2023-06-27T04:56:24.216Z,9.85
2023-06-27T04:57:24.188Z,9.92
2023-06-27T04:58:24.192Z,9.85
2023-06-27T04:59:24.193Z,10.28
2023-06-27T05:00:24.156Z,10.32
2023-06-27T05:01:24.268Z,10.59
2023-06-27T05:02:24.153Z,10.61
2023-06-27T05:03:24.118Z,10.62
2023-06-27T05:04:24.146Z,10.64
2023-06-27T05:05:24.076Z,10.59
2023-06-27T05:06:24.078Z,10.22
2023-06-27T05:07:24.094Z,9.56
2023-06-27T05:08:24.077Z,9.09
2023-06-27T05:09:24.038Z,8.92
2023-06-27T05:10:24.008Z,8.60
2023-06-27T05:11:24.037Z,8.60
2023-06-27T05:12:23.979Z,8.62
2023-06-27T05:13:23.979Z,8.66
2023-06-27T05:14:23.954Z,8.40
2023-06-27T05:15:23.962Z,8.40
2023-06-27T05:16:23.918Z,8.17
2023-06-27T05:17:23.978Z,8.03
2023-06-27T05:18:23.907Z,8.15
2023-06-27T05:19:23.882Z,8.04
2023-06-27T05:20:23.909Z,8.04
2023-06-27T05:21:23.880Z,7.96
2023-06-27T05:22:23.854Z,8.05
2023-06-27T05:23:23.823Z,8.12
2023-06-27T05:24:23.821Z,8.11
2023-06-27T05:25:23.789Z,8.18
2023-06-27T05:26:23.796Z,8.16
2023-06-27T05:27:23.791Z,7.94
2023-06-27T05:28:23.771Z,7.81
2023-06-27T05:29:26.957Z,7.85
2023-06-27T05:30:23.784Z,7.86
2023-06-27T05:31:23.827Z,7.95
2023-06-27T05:32:24.758Z,8.22
2023-06-27T05:33:23.685Z,7.90
2023-06-27T05:34:23.684Z,8.14
2023-06-27T05:35:23.686Z,9.02
2023-06-27T05:36:23.659Z,10.93
2023-06-27T05:37:23.701Z,14.86
2023-06-27T05:38:23.616Z,16.86
2023-06-27T05:39:23.722Z,17.85
2023-06-27T05:40:23.619Z,20.08
2023-06-27T05:41:23.591Z,20.16
2023-06-27T05:42:23.691Z,20.35
2023-06-27T05:43:23.668Z,21.23
2023-06-27T05:44:23.548Z,21.94
2023-06-27T05:45:23.528Z,24.97
2023-06-27T05:46:23.521Z,26.97
2023-06-27T05:47:23.510Z,28.13
2023-06-27T05:48:23.493Z,29.76
2023-06-27T05:49:23.462Z,30.69
2023-06-27T05:50:23.437Z,32.76
2023-06-27T05:51:23.459Z,35.92
2023-06-27T05:52:23.424Z,39.45
2023-06-27T05:53:23.473Z,41.89
2023-06-27T05:54:23.473Z,43.91
2023-06-27T05:55:23.537Z,43.02
2023-06-27T05:56:23.588Z,38.67
2023-06-27T05:57:23.626Z,19.52
2023-06-27T05:58:23.680Z,9.74
2023-06-27T05:59:23.772Z,6.58
2023-06-27T06:00:23.781Z,4.50
2023-06-27T06:01:23.758Z,3.44
2023-06-27T06:02:23.863Z,2.55
2023-06-27T06:03:23.877Z,2.22
2023-06-27T06:04:23.866Z,2.03
2023-06-27T06:05:23.761Z,1.62
2023-06-27T06:06:23.795Z,1.33
2023-06-27T06:07:23.892Z,1.18
2023-06-27T06:08:23.809Z,0.99
2023-06-27T06:09:23.833Z,0.74
2023-06-27T06:10:23.877Z,0.67
2023-06-27T06:11:23.909Z,0.65
2023-06-27T06:12:23.968Z,0.60
2023-06-27T06:13:24.005Z,0.55
2023-06-27T06:14:24.056Z,0.67
2023-06-27T06:15:24.085Z,0.86
2023-06-27T06:16:24.135Z,1.09
2023-06-27T06:17:24.198Z,1.30
2023-06-27T06:18:24.187Z,1.52
2023-06-27T06:19:24.228Z,1.72
2023-06-27T06:20:24.235Z,1.58
2023-06-27T06:21:24.222Z,1.59
2023-06-27T06:22:24.198Z,1.61
2023-06-27T06:23:24.188Z,1.60
2023-06-27T06:24:24.215Z,1.67
2023-06-27T06:25:24.180Z,1.61
2023-06-27T06:26:24.135Z,1.72
2023-06-27T06:27:24.115Z,1.92
2023-06-27T06:28:24.106Z,2.25
2023-06-27T06:29:24.105Z,1.61
2023-06-27T06:30:24.151Z,1.72
2023-06-27T06:31:24.120Z,1.90
2023-06-27T06:32:24.102Z,1.95
2023-06-27T06:33:24.020Z,2.17
2023-06-27T06:34:24.016Z,2.18
2023-06-27T06:35:23.986Z,2.16
2023-06-27T06:36:23.983Z,2.01
2023-06-27T06:37:24.058Z,1.96
2023-06-27T06:38:23.964Z,2.06
2023-06-27T06:39:23.936Z,2.12
2023-06-27T06:40:23.917Z,1.86
2023-06-27T06:41:23.914Z,1.83
2023-06-27T06:42:23.927Z,0.87
2023-06-27T06:43:23.918Z,0.69
2023-06-27T06:44:23.887Z,0.57
2023-06-27T06:45:23.831Z,0.47
2023-06-27T06:46:23.861Z,0.45
2023-06-27T06:47:23.943Z,0.40
2023-06-27T06:48:23.805Z,0.34
2023-06-27T06:49:23.809Z,0.34
2023-06-27T06:50:23.781Z,0.34
2023-06-27T06:51:23.766Z,0.38
2023-06-27T06:52:23.775Z,0.45
2023-06-27T06:53:23.774Z,0.52
2023-06-27T06:54:23.737Z,0.55
2023-06-27T06:55:23.743Z,0.53
2023-06-27T06:56:23.789Z,0.51
2023-06-27T06:57:23.843Z,0.50
2023-06-27T06:58:23.894Z,0.50
2023-06-27T06:59:23.989Z,0.53
2023-06-27T07:00:24.006Z,0.56
2023-06-27T07:01:24.073Z,0.54
2023-06-27T07:02:24.083Z,0.51
2023-06-27T07:03:24.102Z,0.52
2023-06-27T07:04:24.196Z,0.50
2023-06-27T07:05:24.228Z,0.51
2023-06-27T07:06:24.288Z,0.50
2023-06-27T07:07:24.353Z,0.50
2023-06-27T07:08:24.276Z,0.51
2023-06-27T07:09:24.319Z,0.54
2023-06-27T07:10:24.258Z,0.58
2023-06-27T07:11:24.250Z,0.51
2023-06-27T07:12:24.246Z,0.52
2023-06-27T07:13:24.255Z,0.53
2023-06-27T07:14:24.230Z,0.58
2023-06-27T07:15:24.217Z,0.65
2023-06-27T07:16:24.209Z,0.64
2023-06-27T07:17:24.226Z,0.64
2023-06-27T07:18:24.263Z,0.65
2023-06-27T07:19:24.162Z,0.67
2023-06-27T07:20:24.191Z,0.64
2023-06-27T07:21:24.262Z,0.55
2023-06-27T07:22:24.268Z,0.54
2023-06-27T07:23:24.238Z,0.49
2023-06-27T07:24:24.234Z,0.49
2023-06-27T07:25:24.206Z,0.47
2023-06-27T07:26:24.210Z,0.55
2023-06-27T07:27:24.209Z,0.52
2023-06-27T07:28:24.174Z,0.46
2023-06-27T07:29:24.171Z,0.56
2023-06-27T07:30:24.162Z,0.58
2023-06-27T07:31:24.202Z,0.56
2023-06-27T07:32:24.190Z,0.62
2023-06-27T07:33:24.213Z,0.50
2023-06-27T07:34:24.248Z,0.54
2023-06-27T07:35:24.285Z,0.53
2023-06-27T07:36:24.367Z,0.60
2023-06-27T07:37:24.370Z,0.56
2023-06-27T07:38:24.431Z,0.85
2023-06-27T07:39:24.489Z,1.06
2023-06-27T07:40:24.504Z,1.22
2023-06-27T07:41:24.573Z,1.13
2023-06-27T07:42:24.555Z,1.29
2023-06-27T07:43:24.571Z,1.04
2023-06-27T07:44:24.647Z,1.44
2023-06-27T07:45:24.614Z,1.76
2023-06-27T07:46:24.622Z,2.25
2023-06-27T07:47:24.714Z,2.53
2023-06-27T07:48:24.607Z,2.55
2023-06-27T07:49:24.654Z,2.67
2023-06-27T07:50:24.580Z,3.10
2023-06-27T07:51:24.571Z,3.37
2023-06-27T07:52:24.587Z,4.85
2023-06-27T07:53:24.551Z,6.11
2023-06-27T07:54:25.980Z,6.12
2023-06-27T07:55:24.502Z,6.30
2023-06-27T07:56:24.498Z,7.00
2023-06-27T07:57:24.481Z,8.79
2023-06-27T07:58:24.467Z,12.52
2023-06-27T07:59:24.481Z,14.62
2023-06-27T08:00:24.522Z,15.74
2023-06-27T08:01:24.477Z,17.57
2023-06-27T08:02:24.522Z,12.25
2023-06-27T08:03:24.480Z,15.32
2023-06-27T08:04:24.416Z,16.23
2023-06-27T08:05:24.376Z,14.09
2023-06-27T08:06:24.353Z,15.00
2023-06-27T08:07:24.420Z,16.46
2023-06-27T08:08:24.342Z,14.78
2023-06-27T08:09:24.325Z,13.83
2023-06-27T08:10:24.466Z,15.96
2023-06-27T08:11:24.301Z,18.65
2023-06-27T08:12:24.278Z,20.51
2023-06-27T08:13:24.254Z,16.42
2023-06-27T08:14:24.245Z,16.13
2023-06-27T08:15:24.219Z,12.73
2023-06-27T08:16:24.215Z,16.86
2023-06-27T08:17:24.248Z,16.90
2023-06-27T08:18:24.182Z,17.28
2023-06-27T08:19:24.167Z,18.76
2023-06-27T08:20:24.153Z,21.38
2023-06-27T08:21:24.134Z,26.90
2023-06-27T08:22:24.137Z,20.53
2023-06-27T08:23:24.149Z,21.88
2023-06-27T08:24:24.122Z,20.82
2023-06-27T08:25:24.134Z,17.77
2023-06-27T08:26:24.194Z,20.60
2023-06-27T08:27:24.201Z,17.49
2023-06-27T08:28:24.217Z,13.68
2023-06-27T08:29:24.207Z,12.53
2023-06-27T08:30:24.320Z,10.96
2023-06-27T08:31:24.381Z,10.63
2023-06-27T08:32:24.236Z,9.50
2023-06-27T08:33:24.190Z,9.08
2023-06-27T08:34:24.194Z,9.38
2023-06-27T08:35:24.129Z,9.34
2023-06-27T08:36:24.137Z,7.49
2023-06-27T08:37:24.092Z,6.07
2023-06-27T08:38:24.524Z,5.48
2023-06-27T08:39:24.202Z,5.06
2023-06-27T08:40:24.392Z,4.85
2023-06-27T08:41:24.369Z,4.45
2023-06-27T08:42:24.370Z,3.83
2023-06-27T08:43:24.426Z,3.54
2023-06-27T08:44:24.518Z,3.59
2023-06-27T08:45:24.505Z,3.57
2023-06-27T08:46:24.550Z,3.47
2023-06-27T08:47:24.678Z,3.44
2023-06-27T08:48:24.654Z,3.19
2023-06-27T08:49:24.731Z,3.48
2023-06-27T08:50:24.764Z,3.14
2023-06-27T08:51:24.831Z,2.82
2023-06-27T08:52:24.864Z,3.20
2023-06-27T08:53:24.942Z,3.50
2023-06-27T08:54:24.980Z,3.38
2023-06-27T08:55:25.004Z,2.88
2023-06-27T08:56:25.145Z,2.55
2023-06-27T08:57:25.113Z,2.44
2023-06-27T08:58:25.164Z,2.46
2023-06-27T08:59:25.218Z,2.40
2023-06-27T09:00:25.222Z,2.37
2023-06-27T09:01:25.284Z,2.27
2023-06-27T09:02:25.338Z,2.33
2023-06-27T09:03:25.391Z,2.25
2023-06-27T09:04:25.288Z,2.18
2023-06-27T09:05:25.260Z,2.19
2023-06-27T09:06:25.304Z,2.25
2023-06-27T09:07:25.349Z,2.08
2023-06-27T09:08:25.287Z,2.09
2023-06-27T09:09:25.304Z,2.02
2023-06-27T09:10:25.282Z,1.89
2023-06-27T09:11:25.313Z,1.85
2023-06-27T09:12:25.277Z,2.01
2023-06-27T09:13:25.370Z,1.97
2023-06-27T09:14:25.297Z,2.01
2023-06-27T09:15:25.320Z,2.13
2023-06-27T09:16:25.401Z,2.03
2023-06-27T09:17:25.316Z,1.97
2023-06-27T09:18:25.302Z,1.98
2023-06-27T09:19:25.332Z,2.06
2023-06-27T09:20:25.314Z,2.09
2023-06-27T09:21:25.308Z,2.08
2023-06-27T09:22:25.291Z,2.05
2023-06-27T09:23:25.263Z,2.03
2023-06-27T09:24:25.295Z,2.00
2023-06-27T09:25:25.231Z,2.05
2023-06-27T09:26:25.231Z,2.19
2023-06-27T09:27:25.209Z,2.30
2023-06-27T09:28:25.243Z,2.38
2023-06-27T09:29:25.302Z,2.24
2023-06-27T09:30:25.348Z,2.51
2023-06-27T09:31:25.384Z,2.61
2023-06-27T09:32:26.237Z,2.60
2023-06-27T09:33:27.559Z,2.62
2023-06-27T09:34:25.561Z,2.64
2023-06-27T09:38:44.491Z,2.82
2023-06-27T09:39:25.565Z,2.61
2023-06-27T09:40:27.904Z,2.68
2023-06-27T09:41:25.742Z,2.65
2023-06-27T09:42:25.784Z,2.82
2023-06-27T09:43:25.843Z,3.19
2023-06-27T09:44:25.859Z,3.50
2023-06-27T09:45:25.860Z,4.43
2023-06-27T09:46:26.873Z,2.65
2023-06-27T09:47:25.901Z,2.66
2023-06-27T09:48:25.838Z,2.22
2023-06-27T09:49:25.845Z,1.90
2023-06-27T09:50:25.806Z,1.55
2023-06-27T09:51:25.790Z,1.37
2023-06-27T09:52:25.768Z,1.17
2023-06-27T09:53:26.620Z,1.01
2023-06-27T09:54:25.742Z,1.02
2023-06-27T09:55:25.731Z,0.96
2023-06-27T09:56:25.711Z,0.99
2023-06-27T09:57:25.783Z,0.87
2023-06-27T09:58:25.826Z,0.87
2023-06-27T09:59:26.004Z,0.82
2023-06-27T10:00:26.092Z,0.78
2023-06-27T10:01:25.936Z,0.74
2023-06-27T10:02:25.996Z,0.73
2023-06-27T10:03:26.038Z,0.78
2023-06-27T10:05:27.517Z,0.68
2023-06-27T10:06:26.042Z,0.69
2023-06-27T10:07:26.042Z,0.72
2023-06-27T10:08:25.987Z,0.70
2023-06-27T10:09:25.994Z,0.74
2023-06-27T10:10:25.987Z,0.70
2023-06-27T10:11:25.959Z,0.75
2023-06-27T10:12:25.988Z,0.91
2023-06-27T10:13:25.945Z,1.31
2023-06-27T10:14:25.932Z,1.97
2023-06-27T10:15:25.917Z,2.07
2023-06-27T10:16:25.901Z,2.66
2023-06-27T10:17:25.920Z,3.34
2023-06-27T10:18:25.871Z,4.01
2023-06-27T10:19:25.933Z,3.99
2023-06-27T10:20:25.977Z,4.00
2023-06-27T10:21:26.011Z,4.09
2023-06-27T10:22:26.060Z,5.13
2023-06-27T10:23:26.077Z,6.88
2023-06-27T10:24:26.121Z,8.72
2023-06-27T10:25:26.136Z,7.52
2023-06-27T10:26:26.138Z,7.42
2023-06-27T10:27:26.108Z,6.41
2023-06-27T10:28:26.125Z,5.49
2023-06-27T10:29:26.068Z,5.94
2023-06-27T10:30:26.038Z,5.81
2023-06-27T10:31:26.083Z,5.00
2023-06-27T10:32:26.039Z,4.73
2023-06-27T10:33:25.992Z,4.51
2023-06-27T10:34:25.980Z,5.67
2023-06-27T10:35:25.970Z,6.39
2023-06-27T10:36:25.924Z,5.96
2023-06-27T10:37:25.925Z,4.68
2023-06-27T10:38:26.007Z,3.64
2023-06-27T10:39:25.983Z,2.73
2023-06-27T10:40:26.014Z,2.71
2023-06-27T10:41:26.098Z,2.20
2023-06-27T10:42:26.123Z,1.99
2023-06-27T10:43:26.175Z,1.72
2023-06-27T10:44:26.250Z,1.64
2023-06-27T10:45:26.279Z,1.38
2023-06-27T10:46:26.336Z,1.12
2023-06-27T10:47:27.258Z,1.12
2023-06-27T10:48:26.326Z,1.05
2023-06-27T10:49:26.308Z,1.02
2023-06-27T10:50:26.290Z,1.08
2023-06-27T10:51:26.274Z,0.88
2023-06-27T10:52:26.250Z,0.79
2023-06-27T10:53:26.236Z,0.98
2023-06-27T10:54:28.000Z,0.70
2023-06-27T10:55:26.202Z,0.66
2023-06-27T10:56:26.182Z,0.73
2023-06-27T10:57:26.175Z,0.85
2023-06-27T10:58:26.161Z,0.66
2023-06-27T10:59:26.144Z,0.77
2023-06-27T11:00:26.125Z,0.81
2023-06-27T11:01:26.106Z,0.72
2023-06-27T11:02:26.195Z,1.03
2023-06-27T11:03:26.346Z,1.25
2023-06-27T11:04:26.597Z,1.23
2023-06-27T11:05:26.302Z,1.11
2023-06-27T11:06:26.292Z,1.09
2023-06-27T11:07:26.322Z,1.22
2023-06-27T11:08:26.343Z,1.38
2023-06-27T11:09:26.371Z,1.20
2023-06-27T11:10:26.388Z,1.70
2023-06-27T11:11:26.411Z,1.88
2023-06-27T11:12:26.427Z,1.87
2023-06-27T11:13:26.454Z,2.35
2023-06-27T11:14:26.502Z,2.84
2023-06-27T11:15:26.472Z,3.86
2023-06-27T11:16:26.628Z,4.70
2023-06-27T11:17:26.513Z,5.13
2023-06-27T11:18:26.707Z,5.25
2023-06-27T11:19:26.495Z,3.68
2023-06-27T11:20:26.506Z,3.23
2023-06-27T11:21:26.482Z,2.93
2023-06-27T11:22:26.444Z,2.93
2023-06-27T11:23:26.840Z,3.02
2023-06-27T11:24:26.422Z,3.35
2023-06-27T11:25:26.382Z,4.11
2023-06-27T11:26:26.353Z,5.84
2023-06-27T11:27:26.333Z,6.84
2023-06-27T11:28:26.332Z,7.67
2023-06-27T11:29:26.281Z,8.30
2023-06-27T11:30:26.247Z,8.58
2023-06-27T11:31:26.270Z,8.57
2023-06-27T11:32:26.238Z,8.49
2023-06-27T11:33:26.163Z,8.61
2023-06-27T11:34:26.129Z,8.59
2023-06-27T11:35:26.098Z,8.68
2023-06-27T11:36:26.059Z,9.00
2023-06-27T11:37:26.023Z,9.64
2023-06-27T11:38:26.856Z,10.68
2023-06-27T11:39:25.994Z,11.69
2023-06-27T11:40:25.941Z,12.15
2023-06-27T11:41:25.917Z,12.46
2023-06-27T11:42:25.991Z,12.88
2023-06-27T11:43:26.019Z,13.15
2023-06-27T11:44:26.046Z,13.32
2023-06-27T11:45:26.087Z,14.01
2023-06-27T11:46:26.146Z,14.32
2023-06-27T11:47:26.151Z,14.34
2023-06-27T11:48:26.117Z,14.46
2023-06-27T11:49:26.089Z,14.86
2023-06-27T11:50:26.061Z,15.50
2023-06-27T11:51:26.036Z,16.92
2023-06-27T11:52:26.036Z,17.69
2023-06-27T11:53:26.016Z,18.25
2023-06-27T11:54:25.987Z,18.93
2023-06-27T11:55:26.063Z,19.53
2023-06-27T11:56:26.009Z,19.55
2023-06-27T11:57:25.965Z,19.66
2023-06-27T11:58:25.938Z,19.59
2023-06-27T11:59:25.909Z,19.77
2023-06-27T12:01:25.940Z,20.38
2023-06-27T12:02:26.047Z,22.62
2023-06-27T12:03:25.872Z,24.50
2023-06-27T12:04:25.812Z,26.45
2023-06-27T12:05:25.803Z,27.03
2023-06-27T12:06:25.788Z,30.71
2023-06-27T12:07:25.873Z,31.81
2023-06-27T12:08:25.863Z,34.39
2023-06-27T12:09:25.915Z,36.06
2023-06-27T12:10:25.941Z,37.28
2023-06-27T12:11:25.937Z,37.47
2023-06-27T12:12:25.901Z,38.58
2023-06-27T12:13:25.867Z,37.67
2023-06-27T12:14:25.835Z,39.69
2023-06-27T12:15:25.800Z,43.54
2023-06-27T12:16:25.788Z,50.70
2023-06-27T12:17:25.783Z,64.81
2023-06-27T12:18:25.766Z,66.82
2023-06-27T12:19:25.776Z,65.93
2023-06-27T12:20:25.706Z,68.32
2023-06-27T12:21:25.706Z,68.10
2023-06-27T12:22:25.744Z,69.81
2023-06-27T12:23:25.811Z,73.09
2023-06-27T12:24:25.871Z,68.00
2023-06-27T12:25:25.857Z,69.34
2023-06-27T12:26:25.895Z,66.34
2023-06-27T12:27:25.933Z,67.41
2023-06-27T12:28:25.984Z,65.15
2023-06-27T12:29:25.994Z,66.99
2023-06-27T12:30:26.030Z,67.61
2023-06-27T12:31:26.090Z,63.48
2023-06-27T12:32:26.144Z,62.13
2023-06-27T12:33:26.150Z,61.48
2023-06-27T12:34:26.181Z,60.04
2023-06-27T12:35:26.211Z,58.99
2023-06-27T12:36:26.244Z,58.70
2023-06-27T12:37:26.258Z,58.06
2023-06-27T12:38:26.307Z,58.57
2023-06-27T12:39:26.354Z,56.38
2023-06-27T12:40:26.398Z,55.84
2023-06-27T12:41:26.442Z,56.15
2023-06-27T12:42:26.462Z,56.34
2023-06-27T12:43:26.501Z,55.12
2023-06-27T12:44:26.546Z,54.55
2023-06-27T12:45:26.583Z,53.73
2023-06-27T12:46:26.603Z,54.20
2023-06-27T12:47:26.650Z,52.57
2023-06-27T12:48:26.677Z,50.93
2023-06-27T12:49:26.731Z,49.95
2023-06-27T12:50:26.761Z,50.22
2023-06-27T12:51:26.795Z,49.20
2023-06-27T12:52:26.834Z,48.03
2023-06-27T12:53:26.903Z,45.89
2023-06-27T12:54:26.931Z,44.36
2023-06-27T12:55:26.957Z,42.64
2023-06-27T12:56:26.998Z,42.51
2023-06-27T12:57:27.047Z,39.53
2023-06-27T12:58:27.071Z,37.23
2023-06-27T12:59:27.109Z,39.58
2023-06-27T13:00:27.149Z,39.82
2023-06-27T13:01:27.244Z,45.44
2023-06-27T13:02:27.308Z,50.28
2023-06-27T13:03:27.381Z,54.94
2023-06-27T13:04:27.280Z,55.77